.
WxDataArchive / Data Records for 2012-05-20
2012-05-19 May 2012 2012-05-21

Data Records for Sunday, 20 May 2012

Time	Temp	Chill	HIndex	Humid	Dewpt	 Wind 	HiWind	WindDir	Rain 	Barom 
-----	----	-----	------	-----	-----	------	------	-------	-----	----- 
00:00	64.0	64.0	64.0	54	47.0	0	0	---	0.00	30.065 
00:05	63.9	63.9	63.9	55	47.4	0	0	---	0.00	30.065 
00:10	63.7	63.7	63.7	56	47.7	0	0	---	0.00	30.065 
00:15	63.5	63.5	63.5	57	48.0	0	0	---	0.00	30.064 
00:20	63.4	63.4	63.4	57	47.9	0	0	---	0.00	30.064 
00:25	63.1	63.1	63.1	57	47.6	0	0	---	0.00	30.064 
00:30	62.9	62.9	62.9	57	47.4	0	0	---	0.00	30.067 
00:35	62.7	62.7	62.7	60	48.6	0	2	135	0.00	30.067 
00:40	62.9	62.9	62.9	59	48.3	0	2	135	0.00	30.067 
00:45	63.1	63.1	63.1	59	48.5	0	0	---	0.00	30.070 
00:50	63.1	63.1	63.1	58	48.1	0	0	---	0.00	30.070 
00:55	63.1	63.1	63.1	59	48.5	0	2	135	0.00	30.070 
01:00	62.9	62.9	62.9	59	48.3	0	0	---	0.00	30.066 
01:05	62.7	62.7	62.7	59	48.2	0	0	---	0.00	30.066 
01:10	62.6	62.6	62.6	59	48.1	0	2	135	0.00	30.066 
01:15	62.6	62.6	62.6	59	48.1	0	0	---	0.00	30.060 
01:20	62.4	62.4	62.4	60	48.3	0	0	---	0.00	30.060 
01:25	62.3	62.3	62.3	60	48.2	0	0	---	0.00	30.060 
01:30	62.1	62.1	62.1	60	48.0	0	0	---	0.00	30.057 
01:35	62.0	62.0	62.0	61	48.4	0	0	---	0.00	30.057 
01:40	61.6	61.6	61.6	61	48.0	0	0	---	0.00	30.057 
01:45	61.5	61.5	61.5	61	47.9	0	0	---	0.00	30.057 
01:50	61.3	61.3	61.3	62	48.2	0	0	---	0.00	30.057 
01:55	61.3	61.3	61.3	62	48.2	0	0	---	0.00	30.057 
02:00	61.2	61.2	61.2	63	48.5	0	0	---	0.00	30.061 
02:05	61.0	61.0	61.0	63	48.3	0	0	---	0.00	30.061 
02:10	60.9	60.9	60.9	64	48.6	0	0	---	0.00	30.061 
02:15	60.5	60.5	60.5	64	48.3	0	0	---	0.00	30.060 
02:20	60.4	60.4	60.4	65	48.6	0	0	---	0.00	30.060 
02:25	60.2	60.2	60.2	66	48.8	0	0	---	0.00	30.060 
02:30	60.1	60.1	60.1	66	48.7	0	0	---	0.00	30.060 
02:35	59.9	59.9	59.9	67	48.9	0	0	---	0.00	30.060 
02:40	59.8	59.8	59.8	69	49.6	0	0	---	0.00	30.060 
02:45	59.6	59.6	59.6	69	49.4	0	0	---	0.00	30.061 
02:50	59.5	59.5	59.5	70	49.7	0	0	---	0.00	30.061 
02:55	59.3	59.3	59.3	71	49.9	0	0	---	0.00	30.061 
03:00	59.2	59.2	59.2	71	49.8	0	0	---	0.00	30.063 
03:05	59.0	59.0	59.0	73	50.4	0	2	135	0.00	30.063 
03:10	58.9	58.9	58.9	74	50.6	0	2	135	0.00	30.063 
03:15	58.9	58.9	58.9	74	50.6	0	0	---	0.00	30.069 
03:20	58.7	58.7	58.7	75	50.8	0	0	---	0.00	30.069 
03:25	58.7	58.7	58.7	76	51.2	0	0	---	0.00	30.069 
03:30	58.6	58.6	58.6	76	51.1	0	0	---	0.00	30.073 
03:35	58.4	58.4	58.4	76	50.9	0	0	---	0.00	30.073 
03:40	58.4	58.4	58.4	76	50.9	0	0	---	0.00	30.073 
03:45	58.3	58.3	58.3	76	50.8	0	0	---	0.00	30.077 
03:50	58.3	58.3	58.3	76	50.8	0	0	---	0.00	30.077 
03:55	58.1	58.1	58.1	76	50.6	0	0	---	0.00	30.077 
04:00	58.0	58.0	58.0	76	50.5	0	0	---	0.00	30.077 
04:05	57.8	57.8	57.8	76	50.3	0	0	---	0.00	30.077 
04:10	57.6	57.6	57.6	77	50.4	0	0	---	0.00	30.077 
04:15	57.5	57.5	57.5	77	50.3	0	0	---	0.00	30.079 
04:20	57.5	57.5	57.5	77	50.3	0	0	---	0.00	30.079 
04:25	57.2	57.2	57.2	77	50.1	0	0	---	0.00	30.079 
04:30	57.0	57.0	57.0	77	49.9	0	0	---	0.00	30.083 
04:35	56.9	56.9	56.9	77	49.8	0	0	---	0.00	30.083 
04:40	56.7	56.7	56.7	78	49.9	0	0	---	0.00	30.083 
04:45	56.7	56.7	56.7	79	50.3	0	0	---	0.00	30.087 
04:50	56.6	56.6	56.6	79	50.2	0	0	---	0.00	30.087 
04:55	56.5	56.5	56.5	81	50.7	0	0	---	0.00	30.087 
05:00	56.3	56.3	56.3	81	50.5	0	0	---	0.00	30.093 
05:05	56.3	56.3	56.3	81	50.5	0	0	---	0.00	30.093 
05:10	56.2	56.2	56.2	81	50.4	0	0	---	0.00	30.093 
05:15	56.2	56.2	56.2	82	50.8	0	0	---	0.00	30.095 
05:20	56.0	56.0	56.0	82	50.6	0	0	---	0.00	30.095 
05:25	55.9	55.9	55.9	83	50.8	0	0	---	0.00	30.095 
05:30	55.9	55.9	55.9	83	50.8	0	0	---	0.00	30.097 
05:35	55.7	55.7	55.7	83	50.6	0	0	---	0.00	30.097 
05:40	55.7	55.7	55.7	83	50.6	0	0	---	0.00	30.097 
05:45	55.7	55.7	55.7	83	50.6	0	0	---	0.00	30.097 
05:50	55.6	55.6	55.6	84	50.8	0	0	---	0.00	30.097 
05:55	55.6	55.6	55.6	84	50.8	0	0	---	0.00	30.097 
06:00	55.4	55.4	55.4	84	50.6	0	0	---	0.00	30.103 
06:05	55.4	55.4	55.4	84	50.6	0	0	---	0.00	30.103 
06:10	55.3	55.3	55.3	84	50.5	0	0	---	0.00	30.103 
06:15	55.1	55.1	55.1	84	50.4	0	0	---	0.00	30.109 
06:20	55.0	55.0	55.0	85	50.6	0	0	---	0.00	30.109 
06:25	55.0	55.0	55.0	86	50.9	0	0	---	0.00	30.109 
06:30	54.8	54.8	54.8	86	50.7	0	0	---	0.00	30.110 
06:35	54.8	54.8	54.8	86	50.7	0	0	---	0.00	30.110 
06:40	54.8	54.8	54.8	86	50.7	0	0	---	0.00	30.110 
06:45	54.8	54.8	54.8	86	50.7	0	0	---	0.00	30.112 
06:50	54.8	54.8	54.8	87	51.0	0	0	---	0.00	30.112 
06:55	55.0	55.0	55.0	88	51.5	0	0	---	0.00	30.112 
07:00	55.1	55.1	55.1	88	51.6	0	0	---	0.00	30.112 
07:05	55.3	55.3	55.3	88	51.8	0	0	---	0.00	30.112 
07:10	55.3	55.3	55.3	87	51.5	0	0	---	0.00	30.112 
07:15	55.6	55.6	55.6	87	51.8	0	1	112	0.00	30.115 
07:20	56.2	56.2	56.2	84	51.4	0	0	---	0.00	30.115 
07:25	57.0	57.0	57.0	82	51.6	0	0	---	0.00	30.115 
07:30	58.1	58.1	58.1	79	51.6	0	0	---	0.00	30.112 
07:35	59.0	59.0	59.0	77	51.8	0	0	---	0.00	30.112 
07:40	59.8	59.8	59.8	76	52.2	0	0	---	0.00	30.112 
07:45	60.5	60.5	60.5	75	52.5	0	0	---	0.00	30.112 
07:50	61.6	61.6	61.6	70	51.7	0	0	---	0.00	30.112 
07:55	62.9	62.9	62.9	68	52.2	0	1	112	0.00	30.112 
08:00	64.0	64.0	64.0	65	52.0	0	1	112	0.00	30.108 
08:05	65.2	65.2	65.2	64	52.7	0	1	112	0.00	30.108 
08:10	66.3	66.3	66.3	60	52.0	0	1	112	0.00	30.108 
08:15	67.4	67.4	67.4	59	52.6	0	1	112	0.00	30.111 
08:20	68.4	68.4	68.4	56	52.1	0	1	112	0.00	30.111 
08:25	68.9	68.9	68.9	57	53.0	0	2	112	0.00	30.111 
08:30	69.6	69.6	69.6	55	52.7	0	1	112	0.00	30.109 
08:35	70.3	70.3	70.3	54	52.9	0	2	112	0.00	30.109 
08:40	71.3	71.3	71.3	53	53.3	0	1	112	0.00	30.109 
08:45	72.1	72.1	72.1	52	53.5	0	1	112	0.00	30.108 
08:50	73.0	73.0	73.0	51	53.8	0	2	112	0.00	30.108 
08:55	73.5	73.5	73.5	50	53.7	0	1	112	0.00	30.108 
09:00	74.4	74.4	74.4	50	54.5	0	1	112	0.00	30.110 
09:05	75.1	75.1	77.7	48	54.1	0	1	112	0.00	30.110 
09:10	75.3	75.3	77.7	48	54.2	0	0	---	0.00	30.110 
09:15	76.0	76.0	78.0	48	54.9	0	1	112	0.00	30.114 
09:20	76.3	76.3	78.2	48	55.1	0	2	112	0.00	30.114 
09:25	76.7	76.7	78.4	49	56.1	0	2	112	0.00	30.114 
09:30	76.8	76.8	78.4	47	55.0	0	2	112	0.00	30.115 
09:35	77.4	77.4	78.7	47	55.6	0	1	112	0.00	30.115 
09:40	77.9	77.9	79.0	46	55.4	0	1	112	0.00	30.115 
09:45	78.5	78.5	79.3	45	55.4	1	2	112	0.00	30.109 
09:50	79.0	79.0	79.6	45	55.8	0	1	112	0.00	30.109 
09:55	79.6	79.6	80.0	45	56.4	0	2	112	0.00	30.109 
10:00	80.3	80.3	80.6	45	57.0	0	1	112	0.00	30.108 
10:05	80.5	80.5	80.7	45	57.2	0	2	112	0.00	30.108 
10:10	81.1	81.1	81.1	44	57.1	0	3	112	0.00	30.108 
10:15	81.4	81.4	81.4	44	57.4	0	1	112	0.00	30.109 
10:20	82.2	82.2	81.9	42	56.8	0	1	112	0.00	30.109 
10:25	82.8	82.8	82.3	41	56.7	0	3	112	0.00	30.109 
10:30	83.0	83.0	82.5	41	56.8	0	4	90	0.00	30.105 
10:35	83.6	83.6	82.9	40	56.7	0	3	90	0.00	30.105 
10:40	83.8	83.8	83.4	42	58.2	1	5	90	0.00	30.105 
10:45	84.0	84.0	83.1	39	56.3	1	3	90	0.00	30.103 
10:50	84.1	84.1	83.6	41	57.8	0	2	90	0.00	30.103 
10:55	84.7	84.7	84.4	42	59.0	0	2	90	0.00	30.103 
11:00	85.1	85.1	84.4	40	58.0	0	2	90	0.00	30.097 
11:05	84.9	84.9	84.0	39	57.1	1	3	90	0.00	30.097 
11:10	84.7	84.7	84.0	40	57.7	1	3	22	0.00	30.097 
11:15	85.1	85.1	84.3	39	57.3	1	3	112	0.00	30.098 
11:20	85.5	85.5	84.9	40	58.4	0	3	112	0.00	30.098 
11:25	85.7	85.7	84.5	37	56.4	1	3	112	0.00	30.098 
11:30	85.5	85.5	84.7	39	57.7	1	4	112	0.00	30.095 
11:35	85.5	85.5	84.5	38	57.0	1	3	112	0.00	30.095 
11:40	85.9	85.9	85.3	40	58.7	0	2	112	0.00	30.095 
11:45	86.3	86.3	85.2	37	56.9	1	3	112	0.00	30.092 
11:50	86.1	86.1	85.0	37	56.7	1	4	270	0.00	30.092 
11:55	86.5	86.5	85.2	36	56.3	1	4	270	0.00	30.092 
12:00	86.7	86.7	85.6	37	57.3	1	3	270	0.00	30.089 
12:05	87.2	87.2	86.0	36	57.0	1	2	292	0.00	30.089 
12:10	87.4	87.4	86.0	35	56.3	1	3	45	0.00	30.089 
12:15	87.4	87.4	85.3	31	53.0	2	5	112	0.00	30.088 
12:20	87.6	87.6	85.5	31	53.2	2	5	90	0.00	30.088 
12:25	87.8	87.8	85.7	31	53.4	1	3	112	0.00	30.088 
12:30	88.0	88.0	86.5	34	56.1	0	2	112	0.00	30.083 
12:35	88.6	88.6	86.2	29	52.2	1	4	112	0.00	30.083 
12:40	88.4	88.4	86.0	29	52.1	2	4	112	0.00	30.083 
12:45	88.2	88.2	85.9	30	52.8	1	4	112	0.00	30.079 
12:50	88.6	88.6	86.2	29	52.2	1	4	112	0.00	30.079 
12:55	88.8	88.8	86.6	30	53.3	1	5	112	0.00	30.079 
13:00	88.6	88.6	86.6	31	54.1	1	4	90	0.00	30.073 
13:05	88.6	88.6	86.7	32	54.9	1	2	68	0.00	30.073 
13:10	88.8	88.8	86.2	28	51.4	1	3	68	0.00	30.073 
13:15	89.0	89.0	86.4	28	51.6	1	5	90	0.00	30.071 
13:20	88.8	88.8	86.8	31	54.2	1	3	90	0.00	30.071 
13:25	88.8	88.8	86.2	28	51.4	1	4	292	0.00	30.071 
13:30	89.0	89.0	87.0	31	54.4	1	3	112	0.00	30.063 
13:35	89.3	89.3	86.8	28	51.9	1	5	292	0.00	30.063 
13:40	89.5	89.5	87.0	28	52.0	0	2	22	0.00	30.063 
13:45	89.9	89.9	87.4	28	52.4	0	2	0	0.00	30.060 
13:50	90.1	90.1	87.4	27	51.6	1	4	90	0.00	30.060 
13:55	89.9	89.9	87.2	27	51.4	1	4	112	0.00	30.060 
14:00	89.7	89.7	87.2	28	52.2	2	4	112	0.00	30.057 
14:05	89.9	89.9	87.2	27	51.4	1	4	112	0.00	30.057 
14:10	89.9	89.9	87.2	27	51.4	1	4	90	0.00	30.057 
14:15	90.1	90.1	87.6	28	52.6	2	4	112	0.00	30.049 
14:20	89.9	89.9	87.2	27	51.4	2	4	292	0.00	30.049 
14:25	89.5	89.5	87.2	29	53.0	1	4	270	0.00	30.049 
14:30	89.7	89.7	87.0	27	51.2	1	4	90	0.00	30.045 
14:35	90.1	90.1	87.6	28	52.6	1	3	90	0.00	30.045 
14:40	89.9	89.9	87.2	27	51.4	1	4	338	0.00	30.045 
14:45	90.1	90.1	87.3	26	50.5	1	4	68	0.00	30.044 
14:50	90.3	90.3	87.3	25	49.7	0	3	68	0.00	30.044 
14:55	90.5	90.5	87.7	26	50.9	1	2	68	0.00	30.044 
15:00	90.7	90.7	88.1	27	52.1	1	3	68	0.00	30.039 
15:05	91.2	91.2	88.3	25	50.4	0	2	68	0.00	30.039 
15:10	91.2	91.2	88.5	26	51.5	1	3	270	0.00	30.039 
15:15	91.2	91.2	88.5	26	51.5	0	2	112	0.00	30.035 
15:20	91.0	91.0	87.9	24	49.2	1	4	292	0.00	30.035 
15:25	91.0	91.0	87.7	23	48.0	1	3	292	0.00	30.035 
15:30	91.0	91.0	87.7	23	48.0	1	3	292	0.00	30.030 
15:35	91.4	91.4	88.5	25	50.6	0	2	292	0.00	30.030 
15:40	91.8	91.8	88.9	25	50.9	1	3	22	0.00	30.030 
15:45	92.5	92.5	89.7	25	51.5	1	3	112	0.00	30.027 
15:50	92.3	92.3	89.1	23	49.1	0	2	112	0.00	30.027 
15:55	91.6	91.6	88.5	24	49.7	1	4	270	0.00	30.027 
16:00	91.2	91.2	87.9	23	48.2	2	5	112	0.00	30.024 
16:05	91.2	91.2	88.3	25	50.4	1	6	112	0.00	30.024 
16:10	91.2	91.2	87.9	23	48.2	1	3	112	0.00	30.024 
16:15	91.2	91.2	88.1	24	49.3	1	4	112	0.00	30.017 
16:20	91.2	91.2	87.9	23	48.2	1	4	112	0.00	30.017 
16:25	91.2	91.2	88.1	24	49.3	1	3	112	0.00	30.017 
16:30	91.2	91.2	87.8	22	47.0	1	4	112	0.00	30.010 
16:35	91.2	91.2	88.3	25	50.4	1	4	90	0.00	30.010 
16:40	91.2	91.2	87.9	23	48.2	1	4	292	0.00	30.010 
16:45	91.0	91.0	87.7	23	48.0	1	4	22	0.00	30.005 
16:50	91.2	91.2	87.9	23	48.2	0	3	270	0.00	30.005 
16:55	91.2	91.2	88.3	25	50.4	0	2	68	0.00	30.005 
17:00	91.0	91.0	87.9	24	49.2	1	2	45	0.00	30.000 
17:05	91.0	91.0	87.9	24	49.2	1	4	270	0.00	30.000 
17:10	91.0	91.0	87.7	23	48.0	1	3	270	0.00	30.000 
17:15	91.0	91.0	87.9	24	49.2	0	3	270	0.00	29.998 
17:20	91.0	91.0	88.0	25	50.2	0	4	112	0.00	29.998 
17:25	91.0	91.0	88.0	25	50.2	0	2	112	0.00	29.998 
17:30	90.7	90.7	87.4	23	47.8	1	4	68	0.00	29.992 
17:35	90.5	90.5	87.2	23	47.6	2	5	112	0.00	29.992 
17:40	90.3	90.3	86.9	22	46.3	2	4	112	0.00	29.992 
17:45	90.1	90.1	86.8	23	47.3	1	4	90	0.00	29.991 
17:50	90.1	90.1	86.8	23	47.3	1	4	270	0.00	29.991 
17:55	90.1	90.1	86.8	23	47.3	0	1	270	0.00	29.991 
18:00	89.9	89.9	86.7	24	48.2	0	2	270	0.00	29.991 
18:05	89.7	89.7	86.5	24	48.1	1	3	270	0.00	29.991 
18:10	89.5	89.5	86.5	25	49.0	1	6	90	0.00	29.991 
18:15	89.3	89.3	86.3	25	48.8	1	2	90	0.00	29.986 
18:20	89.0	89.0	86.0	25	48.6	0	1	90	0.00	29.986 
18:25	88.8	88.8	85.6	24	47.3	1	3	90	0.00	29.986 
18:30	88.6	88.6	85.7	26	49.3	0	2	68	0.00	29.983 
18:35	88.4	88.4	85.3	24	47.0	1	2	90	0.00	29.983 
18:40	88.4	88.4	85.3	24	47.0	0	2	90	0.00	29.983 
18:45	88.2	88.2	85.1	24	46.8	1	3	90	0.00	29.980 
18:50	88.0	88.0	84.9	24	46.6	0	2	90	0.00	29.980 
18:55	87.8	87.8	84.8	25	47.6	0	2	90	0.00	29.980 
19:00	87.8	87.8	84.9	26	48.6	1	2	90	0.00	29.973 
19:05	87.6	87.6	84.6	25	47.4	0	3	90	0.00	29.973 
19:10	87.4	87.4	84.4	25	47.2	0	3	90	0.00	29.973 
19:15	87.4	87.4	84.6	26	48.3	0	2	68	0.00	29.965 
19:20	87.4	87.4	84.7	27	49.3	0	2	68	0.00	29.965 
19:25	87.2	87.2	84.5	27	49.1	2	6	90	0.00	29.965 
19:30	87.0	87.0	84.3	27	48.9	1	3	112	0.00	29.965 
19:35	86.5	86.5	83.8	27	48.5	0	2	112	0.00	29.965 
19:40	86.5	86.5	84.0	28	49.5	0	2	135	0.00	29.965 
19:45	86.3	86.3	83.8	28	49.3	0	3	135	0.00	29.962 
19:50	86.3	86.3	83.8	28	49.3	1	3	135	0.00	29.962 
19:55	86.1	86.1	83.5	27	48.2	1	3	112	0.00	29.962 
20:00	85.9	85.9	83.3	27	48.0	1	3	135	0.00	29.962 
20:05	85.7	85.7	83.1	27	47.8	1	3	135	0.00	29.962 
20:10	85.5	85.5	83.1	28	48.6	0	4	68	0.00	29.962 
20:15	85.1	85.1	82.7	28	48.3	0	2	68	0.00	29.955 
20:20	84.9	84.9	82.6	28	48.1	1	3	68	0.00	29.955 
20:25	84.7	84.7	82.4	28	48.0	0	2	68	0.00	29.955 
20:30	84.3	84.3	82.1	28	47.6	0	2	68	0.00	29.957 
20:35	84.0	84.0	81.8	28	47.4	0	2	68	0.00	29.957 
20:40	83.8	83.8	81.7	28	47.2	1	2	68	0.00	29.957 
20:45	83.4	83.4	81.4	28	46.8	1	2	112	0.00	29.958 
20:50	83.2	83.2	81.3	29	47.6	0	2	112	0.00	29.958 
20:55	83.0	83.0	81.2	30	48.3	0	2	112	0.00	29.958 
21:00	82.6	82.6	80.9	30	48.0	0	2	112	0.00	29.957 
21:05	82.2	82.2	80.7	31	48.5	0	1	112	0.00	29.957 
21:10	81.8	81.8	80.6	33	49.9	0	3	112	0.00	29.957 
21:15	81.4	81.4	80.4	34	50.3	0	1	112	0.00	29.943 
21:20	81.2	81.2	80.3	35	50.9	0	2	112	0.00	29.943 
21:25	81.1	81.1	80.3	35	50.8	0	2	135	0.00	29.943 
21:30	80.7	80.7	80.0	35	50.5	0	2	135	0.00	29.947 
21:35	80.5	80.5	79.9	36	51.1	0	1	135	0.00	29.947 
21:40	80.3	80.3	79.8	36	50.9	0	1	135	0.00	29.947 
21:45	80.1	80.1	79.8	37	51.5	0	1	135	0.00	29.953 
21:50	79.8	79.8	79.6	37	51.2	0	2	135	0.00	29.953 
21:55	79.6	79.6	79.4	37	51.0	0	1	135	0.00	29.953 
22:00	79.4	79.4	79.4	38	51.6	0	1	135	0.00	29.957 
22:05	79.0	79.0	79.2	38	51.2	0	1	135	0.00	29.957 
22:10	78.8	78.8	79.0	38	51.0	0	1	135	0.00	29.957 
22:15	78.6	78.6	79.0	39	51.5	0	2	135	0.00	29.953 
22:20	78.5	78.5	78.9	39	51.5	0	0	---	0.00	29.953 
22:25	78.3	78.3	78.8	39	51.3	0	0	---	0.00	29.953 
22:30	77.9	77.9	78.6	39	50.9	0	2	135	0.00	29.953 
22:35	77.7	77.7	78.6	40	51.4	0	1	135	0.00	29.953 
22:40	77.6	77.6	78.5	40	51.3	0	2	135	0.00	29.953 
22:45	77.4	77.4	78.4	40	51.2	0	1	135	0.00	29.954 
22:50	77.2	77.2	78.4	41	51.7	0	2	135	0.00	29.954 
22:55	76.8	76.8	78.2	41	51.3	0	2	135	0.00	29.954 
23:00	76.8	76.8	78.2	41	51.3	0	2	135	0.00	29.955 
23:05	76.7	76.7	78.1	41	51.2	0	2	135	0.00	29.955 
23:10	76.7	76.7	78.1	41	51.2	0	2	135	0.00	29.955 
23:15	76.7	76.7	78.1	41	51.2	0	3	135	0.00	29.957 
23:20	76.5	76.5	78.1	41	51.0	0	2	135	0.00	29.957 
23:25	76.5	76.5	78.1	42	51.7	1	3	135	0.00	29.957 
23:30	76.3	76.3	78.0	42	51.5	0	3	135	0.00	29.955 
23:35	76.3	76.3	78.0	42	51.5	0	2	135	0.00	29.955 
23:40	76.3	76.3	78.0	42	51.5	0	1	135	0.00	29.955 
23:45	76.3	76.3	78.0	42	51.5	0	2	135	0.00	29.958 
23:50	76.1	76.1	78.0	43	52.0	0	1	135	0.00	29.958 
23:55	75.8	75.8	77.8	43	51.7	0	0	---	0.00	29.958 

CoCoRaHS
IN-AL-39
A2 Web Hosting
Creative Commons License
GoDaddy
search engine by freefind advanced

loaded 2018-11-20 03:16:46 • last modified 2010-11-18 10:43:29
Privacy PolicyDisclaimer
• wx.awcolley.com is powered by PmWiki v.2002016 •
• all content (unless otherwise noted) © 2018 A W Colley